Fremont, MI

7:53 PM EDT on September 19, 2019 (GMT -0400)
Fremont

Weather History for KFFX - May, 2019

Change the Weather History Date:

Thursday, May 23, 2019

  Actual Average (KMKG) Record (KMKG)
Temperature  
Mean Temperature 60 °F -  
Max Temperature 68 °F 69 °F 87 °F (1972)
Min Temperature 53 °F 48 °F 29 °F (1913)
Degree Days  
Heating Degree Days 4    
Growing Degree Days 10 (Base 50)    
Moisture  
Dew Point 53 °F    
Average Humidity 69    
Maximum Humidity 100    
Minimum Humidity 44    
Precipitation  
Precipitation 0.00 in - - ()
Sea Level Pressure  
Sea Level Pressure 29.94 in    
Wind  
Wind Speed 10 mph ()    
Max Wind Speed 23 mph    
Max Gust Speed 32 mph    
Visibility 9.6 miles    
Events Rain    
Averages and records for this station are not official NWS values.
T = Trace of Precipitation, MM = Missing Value Source: Averaged Metar Reports

Daily Weather History Graph

Daily Weather History Graph

Search for Another Location

Airport or City:

Astronomy

May. 23, 2019 Rise Set
Actual Time 6:12 AM EDT 9:09 PM EDT
Civil Twilight 5:38 AM EDT 9:43 PM EDT
Nautical Twilight 4:55 AM EDT 10:27 PM EDT
Astronomical Twilight 4:04 AM EDT 11:18 PM EDT
Moon 12:53 AM EDT (5/23) 10:14 AM EDT (5/23)
Length of Visible Light 16h 05m
Length of Day
14h 57m
Waning Gibbous, 77% of the Moon is Illuminated
May 23
Waning Gibbous
May 26
Last Quarter
Jun 3
New
Jun 10
First Quarter
Jun 17
Full

Hourly Weather History & Observations

Time (EDT) Temp. Dew Point Humidity Pressure Visibility Wind Dir Wind Speed Gust Speed Precip Events Conditions
12:15 AM 66.0 °F 61.2 °F 84% 29.88 in 10.0 mi SE 8.1 mph - N/A Rain Light Rain
12:35 AM 66.0 °F 61.3 °F 85% 29.87 in 10.0 mi SE 5.8 mph - N/A   Light Drizzle
12:55 AM 66.4 °F 60.8 °F 82% 29.88 in 10.0 mi SSE 3.5 mph - N/A Rain Rain
12:56 AM 66.4 °F 60.8 °F 82% 29.88 in 10.0 mi SSE 3.5 mph - N/A Rain Light Rain
1:15 AM 64.8 °F 62.6 °F 93% 29.91 in 10.0 mi SSW 3.5 mph - N/A Rain Light Rain
1:35 AM 64.4 °F 63.0 °F 95% 29.91 in 7.0 mi South 5.8 mph - N/A Rain Rain
1:55 AM 66.0 °F 63.5 °F 92% 29.90 in 7.0 mi SSW 15.0 mph 27.6 mph N/A Rain Rain
1:56 AM 66.0 °F 63.5 °F 92% 29.90 in 7.0 mi SSW 13.8 mph 27.6 mph N/A Rain Rain
2:15 AM 66.2 °F 64.4 °F 94% 29.88 in 10.0 mi SSW 10.4 mph - N/A Rain Light Rain
2:16 AM 66.2 °F 64.4 °F 94% 29.88 in 10.0 mi SSW 10.4 mph - N/A Rain Light Rain
2:35 AM 66.2 °F 64.6 °F 94% 29.86 in 10.0 mi SSW 9.2 mph 16.1 mph N/A Rain Light Rain
2:55 AM 65.5 °F 64.4 °F 96% 29.85 in 10.0 mi Calm Calm - N/A Rain Rain
2:56 AM 65.5 °F 64.4 °F 96% 29.84 in 10.0 mi Calm Calm - N/A Rain Rain
3:15 AM 64.9 °F 64.6 °F 99% 29.86 in 10.0 mi SW 3.5 mph - N/A Rain Light Rain
3:16 AM 64.9 °F 64.6 °F 99% 29.86 in 10.0 mi SW 3.5 mph - N/A Rain Light Rain
3:35 AM 64.8 °F 64.4 °F 99% 29.83 in 7.0 mi SSE 4.6 mph - N/A Rain Rain
3:55 AM 64.6 °F 64.4 °F 99% 29.83 in 7.0 mi South 6.9 mph - N/A Rain Rain
4:15 AM 64.8 °F 64.4 °F 99% 29.82 in 10.0 mi South 5.8 mph - N/A Rain Light Rain
4:35 AM 65.3 °F 64.8 °F 98% 29.82 in 10.0 mi South 11.5 mph 19.6 mph N/A   Overcast
4:36 AM 65.3 °F 64.6 °F 98% 29.82 in 10.0 mi South 11.5 mph 19.6 mph N/A   Overcast
4:55 AM 65.5 °F 65.3 °F 99% 29.81 in 10.0 mi SSW 10.4 mph 18.4 mph N/A Rain Rain
5:15 AM 66.2 °F 65.5 °F 98% 29.81 in 10.0 mi SW 16.1 mph 20.7 mph N/A   Overcast
5:35 AM 65.8 °F 65.3 °F 98% 29.81 in 10.0 mi WSW 13.8 mph - N/A   Overcast
5:55 AM 64.4 °F 64.2 °F 99% 29.82 in 10.0 mi WSW 12.7 mph 20.7 mph N/A   Overcast
5:56 AM 64.4 °F 64.0 °F 99% 29.82 in 10.0 mi WSW 12.7 mph 20.7 mph N/A   Overcast
6:15 AM 63.1 °F 63.1 °F 100% 29.83 in 5.0 mi WSW 9.2 mph 17.3 mph N/A   Overcast
6:16 AM 63.1 °F 63.1 °F 100% 29.83 in 5.0 mi WSW 9.2 mph 17.3 mph N/A   Overcast
6:35 AM 62.8 °F 62.8 °F 100% 29.84 in 5.0 mi WSW 9.2 mph - N/A   Overcast
6:55 AM 62.2 °F 62.2 °F 100% 29.85 in 5.0 mi WSW 10.4 mph - N/A   Overcast
7:15 AM 61.7 °F 61.7 °F 100% 29.86 in 7.0 mi WSW 12.7 mph 17.3 mph N/A   Overcast
7:16 AM 61.7 °F 61.7 °F 100% 29.86 in 7.0 mi WSW 11.5 mph 17.3 mph N/A   Overcast
7:35 AM 61.2 °F 60.8 °F 99% 29.87 in 10.0 mi West 9.2 mph - N/A   Overcast
7:55 AM 61.2 °F 59.9 °F 96% 29.87 in 10.0 mi West 8.1 mph - N/A   Overcast
8:15 AM 61.5 °F 59.4 °F 93% 29.88 in 10.0 mi West 9.2 mph - N/A   Overcast
8:35 AM 62.2 °F 58.6 °F 88% 29.88 in 10.0 mi West 4.6 mph - N/A   Scattered Clouds
8:36 AM 62.2 °F 58.8 °F 89% 29.88 in 10.0 mi West 5.8 mph - N/A   Scattered Clouds
8:55 AM 63.3 °F 55.0 °F 74% 29.88 in 10.0 mi West 8.1 mph - N/A   Scattered Clouds
8:56 AM 63.3 °F 55.0 °F 74% 29.88 in 10.0 mi West 9.2 mph - N/A   Scattered Clouds
9:15 AM 63.5 °F 52.3 °F 67% 29.88 in 10.0 mi West 9.2 mph - N/A   Clear
9:35 AM 64.6 °F 52.3 °F 64% 29.88 in 10.0 mi West 10.4 mph - N/A   Clear
9:55 AM 65.5 °F 48.7 °F 55% 29.89 in 10.0 mi West 13.8 mph 20.7 mph N/A   Clear
10:15 AM 66.0 °F 47.7 °F 52% 29.90 in 10.0 mi WSW 13.8 mph 21.9 mph N/A   Clear
10:35 AM 65.7 °F 46.4 °F 50% 29.90 in 10.0 mi West 15.0 mph 25.3 mph N/A   Clear
10:55 AM 66.4 °F 46.4 °F 49% 29.91 in 10.0 mi West 12.7 mph 27.6 mph N/A   Clear
11:15 AM 66.2 °F 44.2 °F 45% 29.91 in 10.0 mi West 18.4 mph 29.9 mph N/A   Clear
11:16 AM 66.2 °F 43.9 °F 44% 29.91 in 10.0 mi West 21.9 mph 29.9 mph N/A   Clear
11:35 AM 65.7 °F 44.4 °F 46% 29.92 in 10.0 mi West 23.0 mph 32.2 mph N/A   Clear
11:55 AM 65.5 °F 44.1 °F 46% 29.93 in 10.0 mi West 20.7 mph 29.9 mph N/A   Clear
12:15 PM 66.4 °F 44.8 °F 46% 29.93 in 10.0 mi West 19.6 mph 24.2 mph N/A   Clear
12:35 PM 66.7 °F 46.0 °F 47% 29.94 in 10.0 mi West 15.0 mph 23.0 mph N/A   Clear
12:36 PM 66.9 °F 46.6 °F 48% 29.94 in 10.0 mi West 17.3 mph 23.0 mph N/A   Clear
12:55 PM 67.1 °F 46.4 °F 47% 29.95 in 10.0 mi West 20.7 mph 28.8 mph N/A   Clear
1:15 PM 67.1 °F 46.6 °F 48% 29.96 in 10.0 mi West 20.7 mph 27.6 mph N/A   Scattered Clouds
1:16 PM 66.9 °F 46.0 °F 47% 29.96 in 10.0 mi West 19.6 mph 27.6 mph N/A   Scattered Clouds
1:35 PM 67.3 °F 46.6 °F 47% 29.95 in 10.0 mi West 21.9 mph 27.6 mph N/A   Clear
1:36 PM 67.3 °F 46.6 °F 47% 29.95 in 10.0 mi West 21.9 mph 27.6 mph N/A   Clear
1:55 PM 67.3 °F 46.0 °F 46% 29.95 in 10.0 mi West 17.3 mph 28.8 mph N/A   Clear
2:15 PM 67.5 °F 45.3 °F 45% 29.96 in 10.0 mi West 18.4 mph 26.5 mph N/A   Clear
2:16 PM 67.3 °F 45.3 °F 45% 29.96 in 10.0 mi West 19.6 mph 26.5 mph N/A   Clear
2:59 PM 67.6 °F 45.7 °F 45% 29.98 in 10.0 mi West 20.7 mph 31.1 mph N/A   Scattered Clouds
3:15 PM 68.2 °F 46.8 °F 46% 29.98 in 10.0 mi West 13.8 mph 27.6 mph N/A   Mostly Cloudy
3:35 PM 68.4 °F 46.0 °F 45% 29.98 in 10.0 mi West 20.7 mph 28.8 mph N/A   Overcast
3:36 PM 68.5 °F 46.0 °F 44% 29.98 in 10.0 mi West 21.9 mph 28.8 mph N/A   Overcast
3:55 PM 68.0 °F 46.0 °F 45% 29.98 in 10.0 mi WNW 18.4 mph 28.8 mph N/A   Mostly Cloudy
4:15 PM 68.9 °F 47.3 °F 46% 29.98 in 10.0 mi West 13.8 mph 21.9 mph N/A   Mostly Cloudy
4:16 PM 68.9 °F 47.5 °F 46% 29.98 in 10.0 mi West 12.7 mph 21.9 mph N/A   Mostly Cloudy
4:35 PM 68.5 °F 46.9 °F 46% 29.99 in 10.0 mi West 15.0 mph 26.5 mph N/A   Mostly Cloudy
4:55 PM 68.4 °F 46.8 °F 46% 29.99 in 10.0 mi West 15.0 mph 23.0 mph N/A   Mostly Cloudy
4:56 PM 68.4 °F 46.8 °F 46% 29.99 in 10.0 mi West 13.8 mph 23.0 mph N/A   Mostly Cloudy
5:15 PM 68.5 °F 46.2 °F 45% 29.99 in 10.0 mi West 15.0 mph 21.9 mph N/A   Mostly Cloudy
5:16 PM 68.4 °F 46.2 °F 45% 29.99 in 10.0 mi West 13.8 mph 21.9 mph N/A   Mostly Cloudy
5:35 PM 68.5 °F 46.8 °F 46% 30.00 in 10.0 mi WNW 18.4 mph 21.9 mph N/A   Mostly Cloudy
5:55 PM 67.8 °F 46.9 °F 47% 30.00 in 10.0 mi West 15.0 mph 25.3 mph N/A   Scattered Clouds
6:15 PM 67.1 °F 47.7 °F 50% 30.00 in 10.0 mi WNW 9.2 mph 18.4 mph N/A   Scattered Clouds
6:16 PM 67.3 °F 48.0 °F 50% 30.00 in 10.0 mi WNW 11.5 mph 18.4 mph N/A   Scattered Clouds
6:35 PM 67.5 °F 47.3 °F 48% 30.01 in 10.0 mi West 12.7 mph 18.4 mph N/A   Scattered Clouds
6:55 PM 66.0 °F 47.1 °F 50% 30.01 in 10.0 mi NNW 13.8 mph 19.6 mph N/A   Mostly Cloudy
6:56 PM 66.0 °F 47.1 °F 50% 30.01 in 10.0 mi NNW 15.0 mph 19.6 mph N/A   Mostly Cloudy
7:15 PM 66.2 °F 46.6 °F 49% 30.02 in 10.0 mi WNW 13.8 mph 20.7 mph N/A   Scattered Clouds
7:16 PM 66.2 °F 46.4 °F 49% 30.02 in 10.0 mi WNW 12.7 mph 20.7 mph N/A   Scattered Clouds
7:35 PM 65.7 °F 46.0 °F 49% 30.03 in 10.0 mi WNW 15.0 mph 19.6 mph N/A   Scattered Clouds
7:55 PM 65.1 °F 45.7 °F 49% 30.02 in 10.0 mi WNW 12.7 mph 20.7 mph N/A   Scattered Clouds
8:15 PM 64.0 °F 45.3 °F 51% 30.02 in 10.0 mi NW 11.5 mph 18.4 mph N/A   Clear
8:16 PM 64.0 °F 45.3 °F 51% 30.03 in 10.0 mi NW 9.2 mph 18.4 mph N/A   Clear
8:35 PM 62.8 °F 45.7 °F 54% 30.03 in 10.0 mi NNW 11.5 mph 16.1 mph N/A   Clear
8:55 PM 61.2 °F 46.4 °F 58% 30.04 in 10.0 mi NW 6.9 mph - N/A   Clear
9:15 PM 60.1 °F 46.2 °F 60% 30.04 in 10.0 mi NW 8.1 mph - N/A   Clear
9:16 PM 59.9 °F 46.2 °F 61% 30.05 in 10.0 mi NW 8.1 mph - N/A   Clear
9:35 PM 58.8 °F 46.4 °F 63% 30.04 in 10.0 mi NNW 5.8 mph - N/A   Clear
9:55 PM 58.1 °F 46.4 °F 65% 30.05 in 10.0 mi NW 4.6 mph - N/A   Clear
10:15 PM 57.2 °F 46.9 °F 69% 30.07 in 10.0 mi WNW 4.6 mph - N/A   Clear
10:16 PM 57.0 °F 46.9 °F 69% 30.07 in 10.0 mi WNW 4.6 mph - N/A   Clear
10:35 PM 55.6 °F 46.8 °F 72% 30.09 in 10.0 mi WNW 4.6 mph - N/A   Clear
10:55 PM 54.9 °F 46.4 °F 73% 30.09 in 10.0 mi NW 5.8 mph - N/A   Clear
11:15 PM 54.0 °F 46.4 °F 76% 30.09 in 10.0 mi NNW 5.8 mph - N/A   Clear
11:16 PM 54.0 °F 46.6 °F 76% 30.09 in 10.0 mi NW 5.8 mph - N/A   Clear
11:35 PM 53.2 °F 46.4 °F 78% 30.09 in 10.0 mi NW 4.6 mph - N/A   Clear
11:36 PM 53.2 °F 46.4 °F 78% 30.09 in 10.0 mi WNW 4.6 mph - N/A   Clear
11:55 PM 53.4 °F 45.9 °F 76% 30.10 in 10.0 mi NW 5.8 mph - N/A   Clear